createdAt,value
2018-11-14T00:00:04.521Z,9.73
2018-11-14T00:02:34.643Z,9.73
2018-11-14T00:05:04.384Z,9.72
2018-11-14T00:07:34.352Z,9.70
2018-11-14T00:10:04.829Z,9.71
2018-11-14T00:12:35.372Z,9.67
2018-11-14T00:15:05.689Z,9.68
2018-11-14T00:17:36.688Z,9.72
2018-11-14T00:20:08.371Z,9.76
2018-11-14T00:22:38.661Z,9.70
2018-11-14T00:25:08.501Z,9.66
2018-11-14T00:27:38.473Z,9.67
2018-11-14T00:30:13.583Z,9.69
2018-11-14T00:32:44.025Z,9.70
2018-11-14T00:35:14.790Z,9.72
2018-11-14T00:37:45.409Z,9.73
2018-11-14T00:40:16.892Z,9.71
2018-11-14T00:42:47.412Z,9.70
2018-11-14T00:45:19.606Z,9.75
2018-11-14T00:47:50.379Z,9.68
2018-11-14T00:50:21.780Z,9.65
2018-11-14T00:52:53.178Z,9.63
2018-11-14T00:55:23.477Z,9.61
2018-11-14T00:57:53.636Z,9.57
2018-11-14T01:00:25.243Z,9.61
2018-11-14T01:02:55.562Z,9.61
2018-11-14T01:05:25.904Z,9.63
2018-11-14T01:07:55.649Z,9.67
2018-11-14T01:10:26.116Z,9.67
2018-11-14T01:12:55.844Z,9.64
2018-11-14T01:15:25.739Z,9.69
2018-11-14T01:17:55.560Z,9.64
2018-11-14T01:20:25.368Z,9.62
2018-11-14T01:22:55.152Z,9.60
2018-11-14T01:25:25.025Z,9.60
2018-11-14T01:27:54.791Z,9.64
2018-11-14T01:30:25.351Z,9.56
2018-11-14T01:32:55.392Z,9.55
2018-11-14T01:35:25.244Z,9.49
2018-11-14T01:37:54.996Z,9.42
2018-11-14T01:40:25.854Z,8.83
2018-11-14T01:42:57.029Z,9.43
2018-11-14T01:45:26.862Z,9.35
2018-11-14T01:47:56.590Z,9.34
2018-11-14T01:50:26.425Z,9.28
2018-11-14T01:52:56.190Z,9.22
2018-11-14T01:55:26.050Z,9.13
2018-11-14T01:57:55.868Z,9.12
2018-11-14T02:00:26.060Z,9.11
2018-11-14T02:02:55.935Z,9.13
2018-11-14T02:05:25.848Z,9.08
2018-11-14T02:07:55.612Z,9.03
2018-11-14T02:10:25.448Z,9.10
2018-11-14T02:12:55.252Z,9.06
2018-11-14T02:15:25.248Z,9.05
2018-11-14T02:17:54.991Z,9.02
2018-11-14T02:20:24.857Z,9.05
2018-11-14T02:22:54.627Z,9.11
2018-11-14T02:25:24.488Z,8.47
2018-11-14T02:27:54.328Z,9.10
2018-11-14T02:30:24.788Z,9.09
2018-11-14T02:32:54.547Z,9.12
2018-11-14T02:35:24.402Z,9.16
2018-11-14T02:37:54.183Z,9.11
2018-11-14T02:40:24.060Z,9.12
2018-11-14T02:42:53.886Z,9.12
2018-11-14T02:45:23.702Z,9.06
2018-11-14T02:47:53.524Z,9.10
2018-11-14T02:50:23.444Z,9.16
2018-11-14T02:52:53.218Z,8.97
2018-11-14T02:55:23.056Z,8.86
2018-11-14T02:57:52.928Z,8.84
2018-11-14T03:00:22.922Z,8.82
2018-11-14T03:02:52.724Z,8.99
2018-11-14T03:05:22.686Z,8.84
2018-11-14T03:07:52.548Z,8.81
2018-11-14T03:10:22.692Z,8.80
2018-11-14T03:12:52.540Z,8.78
2018-11-14T03:15:23.379Z,8.90
2018-11-14T03:17:53.238Z,8.83
2018-11-14T03:20:23.051Z,8.83
2018-11-14T03:22:52.884Z,8.77
2018-11-14T03:25:22.788Z,8.75
2018-11-14T03:27:52.572Z,8.62
2018-11-14T03:30:22.434Z,8.55
2018-11-14T03:32:52.263Z,8.61
2018-11-14T03:35:22.188Z,8.64
2018-11-14T03:37:52.084Z,8.60
2018-11-14T03:40:21.996Z,8.64
2018-11-14T03:42:51.816Z,8.54
2018-11-14T03:45:21.624Z,8.59
2018-11-14T03:47:51.588Z,8.54
2018-11-14T03:50:21.458Z,8.70
2018-11-14T03:52:51.421Z,8.62
2018-11-14T03:55:21.282Z,8.61
2018-11-14T03:57:51.071Z,8.52
2018-11-14T04:00:20.970Z,8.48
2018-11-14T04:02:50.851Z,8.51
2018-11-14T04:05:20.670Z,8.56
2018-11-14T04:07:50.523Z,8.72
2018-11-14T04:10:20.441Z,8.56
2018-11-14T04:12:50.308Z,8.61
2018-11-14T04:15:20.187Z,8.67
2018-11-14T04:17:50.084Z,8.65
2018-11-14T04:20:19.969Z,8.69
2018-11-14T04:22:49.876Z,8.74
2018-11-14T04:25:20.591Z,8.76
2018-11-14T04:27:50.544Z,8.75
2018-11-14T04:30:21.719Z,8.75
2018-11-14T04:32:51.614Z,8.85
2018-11-14T04:35:21.978Z,8.80
2018-11-14T04:37:51.870Z,8.79
2018-11-14T04:40:23.153Z,8.81
2018-11-14T04:42:53.122Z,8.81
2018-11-14T04:45:24.266Z,8.81
2018-11-14T04:47:54.283Z,8.77
2018-11-14T04:50:26.313Z,8.80
2018-11-14T04:52:56.520Z,8.82
2018-11-14T04:55:27.108Z,8.83
2018-11-14T04:57:56.880Z,8.87
2018-11-14T05:00:27.193Z,8.89
2018-11-14T05:02:56.963Z,8.67
2018-11-14T05:05:26.827Z,8.73
2018-11-14T05:07:56.602Z,8.75
2018-11-14T05:10:27.211Z,8.81
2018-11-14T05:12:57.026Z,8.76
2018-11-14T05:15:27.014Z,8.65
2018-11-14T05:17:57.056Z,8.66
2018-11-14T05:20:26.967Z,8.67
2018-11-14T05:22:56.745Z,8.70
2018-11-14T05:25:26.554Z,8.77
2018-11-14T05:27:56.302Z,8.77
2018-11-14T05:30:26.246Z,8.08
2018-11-14T05:32:56.018Z,8.54
2018-11-14T05:35:25.908Z,8.58
2018-11-14T05:37:55.738Z,8.54
2018-11-14T05:40:25.592Z,8.61
2018-11-14T05:42:55.366Z,8.62
2018-11-14T05:45:26.460Z,8.49
2018-11-14T05:47:56.308Z,8.40
2018-11-14T05:50:26.133Z,8.40
2018-11-14T05:52:55.908Z,8.42
2018-11-14T05:55:25.765Z,8.34
2018-11-14T05:57:55.674Z,8.32
2018-11-14T06:00:29.724Z,8.32
2018-11-14T06:03:00.356Z,8.34
2018-11-14T06:05:30.269Z,8.37
2018-11-14T06:08:00.064Z,8.41
2018-11-14T06:10:29.912Z,8.50
2018-11-14T06:12:59.726Z,8.52
2018-11-14T06:15:29.673Z,8.54
2018-11-14T06:17:59.726Z,8.54
2018-11-14T06:20:29.636Z,8.52
2018-11-14T06:22:59.414Z,8.53
2018-11-14T06:25:33.617Z,8.54
2018-11-14T06:28:04.610Z,8.54
2018-11-14T06:30:35.315Z,8.24
2018-11-14T06:33:06.302Z,8.36
2018-11-14T06:35:36.256Z,8.38
2018-11-14T06:38:07.111Z,8.44
2018-11-14T06:40:36.960Z,8.43
2018-11-14T06:43:06.760Z,8.47
2018-11-14T06:45:36.806Z,7.90
2018-11-14T06:48:07.030Z,8.30
2018-11-14T06:50:36.954Z,9.03
2018-11-14T06:53:07.576Z,9.15
2018-11-14T06:55:37.497Z,9.38
2018-11-14T06:58:07.348Z,9.43
2018-11-14T07:00:37.250Z,9.33
2018-11-14T07:03:08.108Z,9.35
2018-11-14T07:05:37.953Z,9.45
2018-11-14T07:08:08.007Z,9.53
2018-11-14T07:10:38.354Z,9.37
2018-11-14T07:13:09.366Z,9.38
2018-11-14T07:15:39.790Z,9.21
2018-11-14T07:18:10.877Z,9.04
2018-11-14T07:20:42.114Z,8.96
2018-11-14T07:23:11.923Z,8.88
2018-11-14T07:25:41.876Z,8.82
2018-11-14T07:28:11.672Z,8.76
2018-11-14T07:30:41.494Z,8.72
2018-11-14T07:33:12.024Z,8.48
2018-11-14T07:35:41.943Z,8.56
2018-11-14T07:38:37.354Z,8.44
2018-11-14T07:41:08.953Z,8.45
2018-11-14T07:43:39.368Z,8.34
2018-11-14T07:46:10.274Z,8.28
2018-11-14T07:48:40.467Z,8.25
2018-11-14T07:51:10.959Z,8.29
2018-11-14T07:53:41.558Z,8.31
2018-11-14T07:56:11.283Z,8.22
2018-11-14T07:58:41.982Z,8.20
2018-11-14T08:01:13.095Z,8.23
2018-11-14T08:03:42.814Z,8.21
2018-11-14T08:06:13.027Z,8.15
2018-11-14T08:08:43.140Z,8.17
2018-11-14T08:11:13.688Z,7.85
2018-11-14T08:13:45.221Z,7.11
2018-11-14T08:16:15.110Z,8.30
2018-11-14T08:18:45.834Z,8.34
2018-11-14T08:21:16.738Z,8.35
2018-11-14T08:23:46.747Z,8.51
2018-11-14T08:26:17.447Z,8.61
2018-11-14T08:28:47.632Z,8.76
2018-11-14T08:31:18.970Z,8.93
2018-11-14T08:33:49.419Z,9.04
2018-11-14T08:36:20.063Z,8.91
2018-11-14T08:38:51.187Z,8.89
2018-11-14T08:41:20.811Z,8.90
2018-11-14T08:43:50.534Z,8.78
2018-11-14T08:46:21.301Z,8.91
2018-11-14T08:48:51.305Z,8.39
2018-11-14T08:51:22.159Z,9.08
2018-11-14T08:53:53.059Z,8.99
2018-11-14T08:56:23.890Z,9.03
2018-11-14T08:58:54.733Z,8.96
2018-11-14T09:01:24.771Z,8.84
2018-11-14T09:03:55.169Z,8.95
2018-11-14T09:06:25.811Z,9.43
2018-11-14T09:08:55.496Z,9.20
2018-11-14T09:11:26.423Z,9.43
2018-11-14T09:13:57.693Z,9.51
2018-11-14T09:16:28.559Z,9.59
2018-11-14T09:18:59.003Z,9.54
2018-11-14T09:21:29.104Z,9.69
2018-11-14T09:23:59.581Z,9.58
2018-11-14T09:26:29.563Z,9.50
2018-11-14T09:29:00.276Z,9.49
2018-11-14T09:31:30.985Z,9.55
2018-11-14T09:34:01.522Z,9.62
2018-11-14T09:36:32.115Z,9.65
2018-11-14T09:39:02.906Z,9.72
2018-11-14T09:41:34.623Z,9.84
2018-11-14T09:44:04.576Z,9.85
2018-11-14T09:46:35.827Z,9.96
2018-11-14T09:49:06.352Z,10.03
2018-11-14T09:51:36.943Z,10.18
2018-11-14T09:54:07.308Z,10.35
2018-11-14T09:56:37.532Z,10.45
2018-11-14T09:59:08.234Z,10.49
2018-11-14T10:01:38.687Z,10.63
2018-11-14T10:04:10.673Z,10.58
2018-11-14T10:06:40.818Z,10.77
2018-11-14T10:09:13.170Z,11.04
2018-11-14T10:11:43.235Z,11.13
2018-11-14T10:14:12.968Z,11.21
2018-11-14T10:16:43.575Z,11.20
2018-11-14T10:19:14.427Z,11.23
2018-11-14T10:21:45.100Z,11.25
2018-11-14T10:24:15.162Z,11.35
2018-11-14T10:26:45.282Z,11.43
2018-11-14T10:29:15.402Z,11.38
2018-11-14T10:31:45.536Z,11.53
2018-11-14T10:34:16.506Z,11.74
2018-11-14T10:36:47.503Z,11.80
2018-11-14T10:39:17.746Z,11.86
2018-11-14T10:41:48.378Z,11.91
2018-11-14T10:44:18.614Z,11.95
2018-11-14T10:46:49.706Z,11.87
2018-11-14T10:49:20.182Z,11.90
2018-11-14T10:51:50.470Z,11.93
2018-11-14T10:54:21.579Z,11.77
2018-11-14T10:56:52.172Z,11.60
2018-11-14T10:59:21.883Z,11.49
2018-11-14T11:01:57.566Z,11.37
2018-11-14T11:04:32.523Z,11.37
2018-11-14T11:07:08.045Z,11.41
2018-11-14T11:09:43.378Z,11.43
2018-11-14T11:12:18.287Z,11.44
2018-11-14T11:14:53.691Z,11.46
2018-11-14T11:17:30.256Z,11.56
2018-11-14T11:20:00.337Z,11.51
2018-11-14T11:22:30.974Z,11.50
2018-11-14T11:25:01.391Z,11.51
2018-11-14T11:27:32.303Z,11.60
2018-11-14T11:30:02.923Z,11.59
2018-11-14T11:32:33.823Z,11.67
2018-11-14T11:35:03.557Z,11.64
2018-11-14T11:37:34.374Z,11.77
2018-11-14T11:40:05.183Z,11.63
2018-11-14T11:42:35.285Z,11.55
2018-11-14T11:45:05.531Z,11.61
2018-11-14T11:47:35.750Z,11.59
2018-11-14T11:50:06.983Z,11.70
2018-11-14T11:52:37.391Z,11.64
2018-11-14T11:55:07.805Z,11.71
2018-11-14T11:57:38.706Z,11.68
2018-11-14T12:00:12.527Z,11.52
2018-11-14T12:02:43.088Z,11.47
2018-11-14T12:05:14.815Z,11.49
2018-11-14T12:07:45.799Z,11.26
2018-11-14T12:10:16.773Z,11.08
2018-11-14T12:12:46.893Z,11.00
2018-11-14T12:15:17.793Z,10.96
2018-11-14T12:17:48.549Z,10.93
2018-11-14T12:20:18.523Z,10.90
2018-11-14T12:22:49.158Z,10.82
2018-11-14T12:25:19.655Z,10.85
2018-11-14T12:27:49.474Z,10.82
2018-11-14T12:30:20.172Z,10.90
2018-11-14T12:32:51.697Z,10.98
2018-11-14T12:35:21.686Z,10.99
2018-11-14T12:37:52.106Z,10.99
2018-11-14T12:40:22.711Z,11.01
2018-11-14T12:42:52.947Z,11.12
2018-11-14T12:45:22.966Z,11.03
2018-11-14T12:47:53.319Z,11.02
2018-11-14T12:50:24.139Z,11.02
2018-11-14T12:52:55.010Z,11.04
2018-11-14T12:55:25.363Z,11.05
2018-11-14T12:57:55.521Z,11.28
2018-11-14T13:00:25.527Z,11.33
2018-11-14T13:02:56.839Z,11.26
2018-11-14T13:05:28.124Z,11.29
2018-11-14T13:07:59.058Z,11.24
2018-11-14T13:10:30.017Z,11.37
2018-11-14T13:13:00.556Z,11.41
2018-11-14T13:15:30.526Z,11.29
2018-11-14T13:18:00.427Z,10.16
2018-11-14T13:20:30.441Z,11.24
2018-11-14T13:23:01.729Z,11.31
2018-11-14T13:25:31.698Z,11.47
2018-11-14T13:28:01.995Z,11.41
2018-11-14T13:30:32.427Z,11.40
2018-11-14T13:33:03.094Z,11.40
2018-11-14T13:35:32.939Z,11.40
2018-11-14T13:38:03.442Z,11.42
2018-11-14T13:40:34.162Z,11.47
2018-11-14T13:43:04.433Z,11.55
2018-11-14T13:45:35.138Z,11.62
2018-11-14T13:48:05.987Z,11.71
2018-11-14T13:50:36.155Z,11.07
2018-11-14T13:53:06.412Z,11.76
2018-11-14T13:55:37.642Z,11.68
2018-11-14T13:58:07.350Z,11.70
2018-11-14T14:00:37.734Z,11.73
2018-11-14T14:03:07.567Z,11.78
2018-11-14T14:05:37.586Z,11.79
2018-11-14T14:08:07.443Z,11.82
2018-11-14T14:10:37.325Z,11.99
2018-11-14T14:13:07.288Z,12.00
2018-11-14T14:15:37.113Z,11.93
2018-11-14T14:18:07.126Z,11.79
2018-11-14T14:20:37.053Z,11.75
2018-11-14T14:23:07.023Z,11.76
2018-11-14T14:25:36.942Z,11.66
2018-11-14T14:28:06.910Z,10.78
2018-11-14T14:30:36.943Z,11.57
2018-11-14T14:33:06.871Z,11.62
2018-11-14T14:35:36.842Z,11.60
2018-11-14T14:38:06.764Z,11.54
2018-11-14T14:40:36.647Z,11.51
2018-11-14T14:43:06.715Z,11.51
2018-11-14T14:45:36.607Z,11.48
2018-11-14T14:48:06.827Z,11.46
2018-11-14T14:50:36.748Z,11.45
2018-11-14T14:53:07.017Z,11.45
2018-11-14T14:55:36.928Z,11.43
2018-11-14T14:58:06.887Z,11.40
2018-11-14T15:00:36.823Z,11.36
2018-11-14T15:03:06.718Z,10.98
2018-11-14T15:05:36.659Z,11.25
2018-11-14T15:08:06.595Z,11.22
2018-11-14T15:10:36.486Z,11.17
2018-11-14T15:13:06.726Z,11.15
2018-11-14T15:15:36.695Z,11.14
2018-11-14T15:18:06.678Z,11.11
2018-11-14T15:20:36.562Z,11.08
2018-11-14T15:23:06.869Z,11.04
2018-11-14T15:25:36.783Z,11.02
2018-11-14T15:28:07.042Z,10.99
2018-11-14T15:30:36.965Z,10.97
2018-11-14T15:33:06.938Z,10.94
2018-11-14T15:35:36.903Z,10.91
2018-11-14T15:38:06.755Z,10.89
2018-11-14T15:40:36.666Z,10.84
2018-11-14T15:43:06.707Z,10.79
2018-11-14T15:45:36.547Z,10.75
2018-11-14T15:48:06.446Z,10.71
2018-11-14T15:50:36.907Z,10.71
2018-11-14T15:53:07.382Z,10.66
2018-11-14T15:55:37.303Z,10.63
2018-11-14T15:58:07.277Z,10.59
2018-11-14T16:00:37.163Z,10.56
2018-11-14T16:03:07.155Z,10.51
2018-11-14T16:05:37.079Z,10.47
2018-11-14T16:08:06.985Z,10.44
2018-11-14T16:10:36.865Z,10.42
2018-11-14T16:13:06.821Z,10.40
2018-11-14T16:15:37.614Z,10.39
2018-11-14T16:18:07.530Z,10.39
2018-11-14T16:20:37.313Z,10.37
2018-11-14T16:23:07.259Z,10.35
2018-11-14T16:25:37.143Z,10.30
2018-11-14T16:28:07.023Z,10.25
2018-11-14T16:30:37.767Z,10.21
2018-11-14T16:33:08.611Z,10.12
2018-11-14T16:35:38.456Z,10.07
2018-11-14T16:38:08.501Z,10.03
2018-11-14T16:40:38.390Z,9.98
2018-11-14T16:43:09.154Z,9.91
2018-11-14T16:45:39.066Z,9.87
2018-11-14T16:48:09.019Z,9.79
2018-11-14T16:50:39.019Z,9.69
2018-11-14T16:53:08.906Z,9.62
2018-11-14T16:55:38.807Z,9.57
2018-11-14T16:58:08.612Z,9.44
2018-11-14T17:00:38.379Z,9.42
2018-11-14T17:03:08.298Z,9.37
2018-11-14T17:05:38.266Z,9.28
2018-11-14T17:08:08.118Z,9.30
2018-11-14T17:10:38.055Z,9.24
2018-11-14T17:13:07.883Z,9.19
2018-11-14T17:15:37.782Z,9.16
2018-11-14T17:18:07.674Z,9.13
2018-11-14T17:20:37.609Z,9.11
2018-11-14T17:23:07.527Z,9.15
2018-11-14T17:25:37.419Z,9.15
2018-11-14T17:28:07.647Z,9.15
2018-11-14T17:30:37.546Z,9.18
2018-11-14T17:33:07.707Z,9.21
2018-11-14T17:35:37.626Z,8.88
2018-11-14T17:38:07.471Z,9.27
2018-11-14T17:40:37.382Z,9.29
2018-11-14T17:43:07.374Z,9.29
2018-11-14T17:45:37.274Z,9.26
2018-11-14T17:48:07.148Z,9.28
2018-11-14T17:50:37.168Z,9.28
2018-11-14T17:53:07.054Z,9.24
2018-11-14T17:55:37.078Z,9.29
2018-11-14T17:58:06.840Z,9.39
2018-11-14T18:00:36.788Z,9.53
2018-11-14T18:03:06.808Z,9.59
2018-11-14T18:05:36.746Z,9.53
2018-11-14T18:08:06.591Z,9.54
2018-11-14T18:10:36.528Z,9.55
2018-11-14T18:13:06.619Z,9.56
2018-11-14T18:15:36.488Z,9.58
2018-11-14T18:18:06.344Z,9.68
2018-11-14T18:20:36.311Z,9.66
2018-11-14T18:23:06.259Z,9.70
2018-11-14T18:25:36.277Z,9.69
2018-11-14T18:28:06.490Z,9.66
2018-11-14T18:30:36.482Z,9.61
2018-11-14T18:33:06.402Z,9.59
2018-11-14T18:35:36.479Z,9.56
2018-11-14T18:38:06.616Z,9.51
2018-11-14T18:40:36.888Z,9.59
2018-11-14T18:43:07.230Z,9.47
2018-11-14T18:45:37.479Z,9.45
2018-11-14T18:48:08.067Z,9.41
2018-11-14T18:50:38.010Z,9.43
2018-11-14T18:53:07.900Z,9.48
2018-11-14T18:55:37.846Z,9.50
2018-11-14T18:58:07.893Z,9.49
2018-11-14T19:00:37.895Z,9.46
2018-11-14T19:03:08.658Z,9.53
2018-11-14T19:05:38.691Z,9.52
2018-11-14T19:08:08.582Z,9.51
2018-11-14T19:10:38.690Z,9.53
2018-11-14T19:13:08.508Z,9.53
2018-11-14T19:15:38.404Z,9.56
2018-11-14T19:18:08.341Z,9.60
2018-11-14T19:20:38.267Z,9.55
2018-11-14T19:23:08.230Z,9.55
2018-11-14T19:25:38.663Z,9.58
2018-11-14T19:28:08.534Z,9.57
2018-11-14T19:30:39.322Z,9.58
2018-11-14T19:33:09.227Z,9.57
2018-11-14T19:35:39.478Z,9.57
2018-11-14T19:38:09.342Z,9.54
2018-11-14T19:40:40.212Z,9.87
2018-11-14T19:43:11.647Z,10.17
2018-11-14T19:45:42.274Z,10.41
2018-11-14T19:48:12.263Z,10.57
2018-11-14T19:50:42.411Z,10.67
2018-11-14T19:53:12.355Z,10.64
2018-11-14T19:55:42.577Z,10.34
2018-11-14T19:58:12.487Z,10.20
2018-11-14T20:00:43.525Z,10.09
2018-11-14T20:03:13.556Z,9.98
2018-11-14T20:05:43.464Z,9.85
2018-11-14T20:08:13.421Z,9.76
2018-11-14T20:10:43.305Z,9.65
2018-11-14T20:13:13.900Z,9.49
2018-11-14T20:15:43.839Z,9.39
2018-11-14T20:18:13.751Z,9.28
2018-11-14T20:20:43.742Z,9.24
2018-11-14T20:23:13.643Z,9.22
2018-11-14T20:25:43.701Z,9.27
2018-11-14T20:28:13.507Z,9.22
2018-11-14T20:30:43.466Z,9.04
2018-11-14T20:33:14.113Z,9.22
2018-11-14T20:35:44.143Z,9.17
2018-11-14T20:38:14.011Z,9.15
2018-11-14T20:40:44.230Z,9.16
2018-11-14T20:43:14.096Z,9.19
2018-11-14T20:45:43.944Z,9.21
2018-11-14T20:48:13.806Z,9.20
2018-11-14T20:50:43.783Z,9.22
2018-11-14T20:53:13.682Z,9.24
2018-11-14T20:55:43.554Z,9.25
2018-11-14T20:58:13.467Z,9.25
2018-11-14T21:00:43.402Z,9.27
2018-11-14T21:03:13.318Z,9.28
2018-11-14T21:05:43.387Z,9.31
2018-11-14T21:08:17.874Z,9.30
2018-11-14T21:10:48.756Z,9.32
2018-11-14T21:13:19.431Z,9.34
2018-11-14T21:15:49.338Z,9.34
2018-11-14T21:18:19.176Z,9.36
2018-11-14T21:20:49.031Z,9.36
2018-11-14T21:23:18.962Z,9.38
2018-11-14T21:25:48.845Z,9.36
2018-11-14T21:28:18.691Z,9.37
2018-11-14T21:30:48.582Z,9.39
2018-11-14T21:33:18.410Z,9.42
2018-11-14T21:35:48.327Z,9.50
2018-11-14T21:38:18.137Z,9.56
2018-11-14T21:40:47.970Z,9.41
2018-11-14T21:43:17.912Z,9.41
2018-11-14T21:45:47.831Z,9.40
2018-11-14T21:48:18.584Z,7.58
2018-11-14T21:50:48.390Z,9.34
2018-11-14T21:53:18.531Z,9.29
2018-11-14T21:55:48.657Z,9.34
2018-11-14T21:58:18.719Z,9.34
2018-11-14T22:00:49.028Z,9.40
2018-11-14T22:03:19.013Z,9.35
2018-11-14T22:05:49.251Z,9.27
2018-11-14T22:08:19.112Z,9.16
2018-11-14T22:10:49.431Z,9.14
2018-11-14T22:13:19.313Z,9.14
2018-11-14T22:15:49.038Z,9.16
2018-11-14T22:18:18.869Z,9.13
2018-11-14T22:20:48.739Z,9.14
2018-11-14T22:23:18.633Z,9.16
2018-11-14T22:25:48.470Z,9.15
2018-11-14T22:28:18.335Z,9.15
2018-11-14T22:30:48.069Z,9.14
2018-11-14T22:33:17.875Z,9.15
2018-11-14T22:35:47.742Z,9.16
2018-11-14T22:38:17.466Z,9.15
2018-11-14T22:40:47.289Z,9.17
2018-11-14T22:43:17.216Z,9.15
2018-11-14T22:45:47.072Z,9.17
2018-11-14T22:48:16.871Z,9.05
2018-11-14T22:50:46.662Z,7.94
2018-11-14T22:53:16.491Z,8.86
2018-11-14T22:55:46.331Z,8.80
2018-11-14T22:58:16.181Z,8.76
2018-11-14T23:00:47.102Z,8.73
2018-11-14T23:03:17.429Z,8.72
2018-11-14T23:05:47.356Z,8.73
2018-11-14T23:08:17.180Z,8.74
2018-11-14T23:10:46.975Z,8.73
2018-11-14T23:13:16.778Z,8.67
2018-11-14T23:15:46.635Z,8.70
2018-11-14T23:18:16.397Z,8.61
2018-11-14T23:20:46.134Z,8.55
2018-11-14T23:23:16.025Z,8.50
2018-11-14T23:25:45.730Z,8.44
2018-11-14T23:28:15.468Z,8.41
2018-11-14T23:30:45.126Z,8.38
2018-11-14T23:33:14.884Z,8.37
2018-11-14T23:35:44.600Z,8.36
2018-11-14T23:38:16.318Z,8.33
2018-11-14T23:40:46.132Z,8.31
2018-11-14T23:43:16.047Z,8.23
2018-11-14T23:45:45.876Z,8.15
2018-11-14T23:48:15.776Z,8.09
2018-11-14T23:50:45.677Z,8.05
2018-11-14T23:53:15.545Z,7.97
2018-11-14T23:55:45.357Z,7.93
2018-11-14T23:58:15.236Z,7.95
